SBST

Details ICAO SBST (SSZ)
Name BASE AEREA DE SANTOS
Region Brazil
Timezone America/Sao_Paulo (UTC-2.0)
Plans Departing 22
Arriving 22
Stats Elevation 10 ft / 3 m (AMSL)
Location -23.925204° -46.287498°
Runways 1
Magnetic Variation 21.406° W
Sunrise 2017-12-15 08:13:41 UTC / 2017-12-15 06:13:41 Local
Sunset 2017-12-15 21:49:50 UTC / 2017-12-15 19:49:50 Local
Advertisement - Login to hide

Runways

ID Width Length Bearing (true) Bearing (mag) Surface Threshold Offset Overrun Length
17 148 ft / 45 m 4,574 ft / 1,394 m 148.78° 170.19° Asphalt 0 ft / 0 m 0 ft / 0 m
35 148 ft / 45 m 4,574 ft / 1,394 m 328.78° 350.19° Asphalt 0 ft / 0 m 0 ft / 0 m

Map

Weather


0- 5 10 15 20 25 30 35+ Temperature / ° C

Clouds and Precipitation
Forecast for 2017-12-16 00:00 UTC. Updated an hour ago

Ground ~20,000 ft ~40,000 ft Winds

METAR

SBST 152100Z 20004KT CAVOK 26/21 Q1011

TAF

Not found

Frequencies

Tower 122.80 MHz TWR
Approach 119.80 MHz SAO PAULO APP
Approach 129.50 MHz SAO PAULO APP
Tower 118.30 MHz TWR
Approach 120.05 MHz SAO PAULO APP
Warning: Do not use this data for real-world aviation or navigation. No guarantee of current accuracy is given.